createdAt,value
2019-04-14T00:00:41.122Z,36.63
2019-04-14T00:01:32.648Z,36.88
2019-04-14T00:02:29.278Z,37.60
2019-04-14T00:03:17.274Z,37.30
2019-04-14T00:04:05.226Z,37.63
2019-04-14T00:04:44.409Z,37.63
2019-04-14T00:05:18.933Z,37.65
2019-04-14T00:05:56.091Z,35.95
2019-04-14T00:06:30.621Z,36.53
2019-04-14T00:07:03.998Z,37.35
2019-04-14T00:07:37.028Z,37.23
2019-04-14T00:08:11.061Z,37.70
2019-04-14T00:08:44.419Z,37.03
2019-04-14T00:09:20.444Z,36.80
2019-04-14T00:09:54.214Z,37.42
2019-04-14T00:10:27.360Z,36.73
2019-04-14T00:11:01.733Z,36.80
2019-04-14T00:11:40.960Z,37.40
2019-04-14T00:12:14.420Z,37.38
2019-04-14T00:12:47.402Z,36.55
2019-04-14T00:13:21.685Z,37.33
2019-04-14T00:13:54.804Z,37.17
2019-04-14T00:14:29.773Z,37.38
2019-04-14T00:15:05.658Z,37.55
2019-04-14T00:15:43.507Z,37.88
2019-04-14T00:16:14.142Z,38.00
2019-04-14T00:16:47.430Z,38.42
2019-04-14T00:17:21.634Z,36.95
2019-04-14T00:17:54.695Z,36.80
2019-04-14T00:18:27.684Z,37.38
2019-04-14T00:19:02.014Z,37.70
2019-04-14T00:19:36.971Z,36.93
2019-04-14T00:20:10.236Z,37.03
2019-04-14T00:20:44.765Z,37.55
2019-04-14T00:21:17.852Z,37.05
2019-04-14T00:21:52.157Z,37.38
2019-04-14T00:22:28.054Z,38.35
2019-04-14T00:22:59.965Z,37.28
2019-04-14T00:23:32.998Z,37.58
2019-04-14T00:24:07.290Z,37.65
2019-04-14T00:24:42.455Z,38.42
2019-04-14T00:25:15.645Z,37.78
2019-04-14T00:25:48.656Z,37.53
2019-04-14T00:26:27.653Z,38.10
2019-04-14T00:27:01.946Z,38.05
2019-04-14T00:27:35.143Z,38.05
2019-04-14T00:28:09.412Z,37.25
2019-04-14T00:28:42.629Z,37.08
2019-04-14T00:29:15.656Z,37.44
2019-04-14T00:29:48.890Z,37.08
2019-04-14T00:30:23.025Z,37.67
2019-04-14T00:30:56.039Z,38.20
2019-04-14T00:31:29.146Z,37.85
2019-04-14T00:32:03.083Z,38.05
2019-04-14T00:32:44.498Z,37.42
2019-04-14T00:33:19.210Z,37.88
2019-04-14T00:33:54.279Z,37.45
2019-04-14T00:34:46.425Z,37.40
2019-04-14T00:35:39.113Z,36.25
2019-04-14T00:36:21.886Z,37.60
2019-04-14T00:37:27.349Z,37.95
2019-04-14T00:38:15.127Z,37.88
2019-04-14T00:38:50.265Z,38.28
2019-04-14T00:39:29.497Z,38.00
2019-04-14T00:40:12.807Z,37.38
2019-04-14T00:41:00.700Z,37.70
2019-04-14T00:41:48.890Z,38.33
2019-04-14T00:42:40.938Z,37.90
2019-04-14T00:43:28.730Z,37.93
2019-04-14T00:44:27.806Z,37.88
2019-04-14T00:45:15.538Z,37.00
2019-04-14T00:45:57.649Z,36.45
2019-04-14T00:46:38.851Z,37.48
2019-04-14T00:47:16.103Z,37.55
2019-04-14T00:48:01.178Z,37.75
2019-04-14T00:48:29.885Z,38.30
2019-04-14T00:49:03.171Z,38.00
2019-04-14T00:49:36.099Z,37.35
2019-04-14T00:50:10.143Z,37.00
2019-04-14T00:50:43.199Z,38.05
2019-04-14T00:51:17.649Z,38.02
2019-04-14T00:51:50.946Z,37.90
2019-04-14T00:52:25.356Z,37.55
2019-04-14T00:52:58.871Z,37.75
2019-04-14T00:53:31.982Z,38.17
2019-04-14T00:54:05.024Z,37.95
2019-04-14T00:54:39.269Z,37.75
2019-04-14T00:55:12.461Z,37.75
2019-04-14T00:55:46.375Z,37.83
2019-04-14T00:56:19.695Z,38.10
2019-04-14T00:56:52.495Z,37.73
2019-04-14T00:57:25.401Z,37.98
2019-04-14T00:57:59.480Z,37.50
2019-04-14T00:58:34.314Z,38.08
2019-04-14T00:59:07.352Z,38.48
2019-04-14T00:59:40.241Z,38.13
2019-04-14T01:00:16.089Z,38.13
2019-04-14T01:00:50.055Z,38.20
2019-04-14T01:01:24.326Z,39.00
2019-04-14T01:01:57.405Z,38.08
2019-04-14T01:02:30.350Z,38.20
2019-04-14T01:03:04.799Z,38.00
2019-04-14T01:03:37.781Z,37.83
2019-04-14T01:04:10.805Z,37.45
2019-04-14T01:04:44.716Z,38.13
2019-04-14T01:05:17.889Z,38.48
2019-04-14T01:05:50.930Z,37.73
2019-04-14T01:06:24.996Z,38.02
2019-04-14T01:06:58.286Z,37.65
2019-04-14T01:07:32.629Z,37.70
2019-04-14T01:08:05.816Z,38.80
2019-04-14T01:08:38.700Z,38.45
2019-04-14T01:09:13.428Z,37.10
2019-04-14T01:09:46.411Z,38.35
2019-04-14T01:10:19.564Z,38.42
2019-04-14T01:10:52.584Z,38.38
2019-04-14T01:11:25.355Z,38.58
2019-04-14T01:11:59.506Z,38.25
2019-04-14T01:12:32.577Z,37.95
2019-04-14T01:13:08.440Z,38.45
2019-04-14T01:13:40.472Z,38.60
2019-04-14T01:14:14.802Z,38.63
2019-04-14T01:14:47.831Z,38.30
2019-04-14T01:15:20.752Z,38.25
2019-04-14T01:16:00.516Z,38.05
2019-04-14T01:16:29.718Z,38.00
2019-04-14T01:17:02.888Z,37.98
2019-04-14T01:17:35.810Z,38.67
2019-04-14T01:18:12.457Z,38.00
2019-04-14T01:18:45.687Z,37.85
2019-04-14T01:19:19.908Z,38.02
2019-04-14T01:19:52.822Z,37.42
2019-04-14T01:20:25.959Z,38.05
2019-04-14T01:20:58.747Z,37.95
2019-04-14T01:21:32.713Z,38.05
2019-04-14T01:22:05.887Z,38.63
2019-04-14T01:22:40.113Z,37.50
2019-04-14T01:23:13.223Z,38.08
2019-04-14T01:23:48.045Z,37.75
2019-04-14T01:24:20.923Z,38.38
2019-04-14T01:24:53.927Z,37.75
2019-04-14T01:25:28.110Z,38.23
2019-04-14T01:26:01.161Z,38.02
2019-04-14T01:26:34.091Z,37.83
2019-04-14T01:27:08.030Z,38.58
2019-04-14T01:27:41.211Z,37.73
2019-04-14T01:28:14.217Z,37.73
2019-04-14T01:28:48.316Z,38.58
2019-04-14T01:29:21.300Z,37.93
2019-04-14T01:29:54.189Z,37.75
2019-04-14T01:30:28.329Z,37.50
2019-04-14T01:31:01.520Z,37.13
2019-04-14T01:31:34.423Z,37.17
2019-04-14T01:32:08.705Z,38.10
2019-04-14T01:32:41.871Z,38.35
2019-04-14T01:33:14.698Z,36.98
2019-04-14T01:33:47.619Z,37.17
2019-04-14T01:34:21.625Z,37.20
2019-04-14T01:34:55.953Z,37.67
2019-04-14T01:35:29.803Z,36.95
2019-04-14T01:36:03.923Z,36.68
2019-04-14T01:36:36.920Z,37.42
2019-04-14T01:37:09.976Z,36.95
2019-04-14T01:37:44.027Z,37.48
2019-04-14T01:38:19.034Z,37.40
2019-04-14T01:38:53.497Z,36.28
2019-04-14T01:39:26.804Z,37.40
2019-04-14T01:40:00.914Z,37.50
2019-04-14T01:40:34.185Z,36.45
2019-04-14T01:41:08.451Z,36.15
2019-04-14T01:41:41.639Z,36.60
2019-04-14T01:42:15.864Z,36.03
2019-04-14T01:42:48.914Z,36.33
2019-04-14T01:43:21.982Z,36.60
2019-04-14T01:43:56.123Z,36.23
2019-04-14T01:44:29.049Z,36.55
2019-04-14T01:45:03.519Z,36.15
2019-04-14T01:45:36.743Z,36.60
2019-04-14T01:46:16.577Z,36.17
2019-04-14T01:46:45.589Z,35.65
2019-04-14T01:47:18.644Z,36.25
2019-04-14T01:47:51.595Z,36.20
2019-04-14T01:48:25.730Z,36.10
2019-04-14T01:49:00.706Z,36.15
2019-04-14T01:49:35.427Z,36.68
2019-04-14T01:50:08.684Z,35.45
2019-04-14T01:51:00.564Z,36.30
2019-04-14T01:51:57.108Z,35.78
2019-04-14T01:52:50.175Z,36.13
2019-04-14T01:53:40.146Z,35.28
2019-04-14T01:54:36.430Z,35.83
2019-04-14T01:55:28.790Z,35.70
2019-04-14T01:56:16.541Z,36.20
2019-04-14T01:56:58.771Z,36.05
2019-04-14T01:57:48.316Z,34.95
2019-04-14T01:58:27.174Z,34.63
2019-04-14T01:59:02.208Z,35.55
2019-04-14T01:59:35.297Z,35.90
2019-04-14T02:00:40.993Z,34.80
2019-04-14T02:01:19.513Z,34.92
2019-04-14T02:01:54.297Z,35.10
2019-04-14T02:02:27.737Z,34.50
2019-04-14T02:03:01.868Z,36.25
2019-04-14T02:03:34.859Z,35.60
2019-04-14T02:04:07.953Z,35.05
2019-04-14T02:04:42.063Z,35.92
2019-04-14T02:05:15.057Z,34.92
2019-04-14T02:05:48.153Z,35.15
2019-04-14T02:06:22.334Z,36.08
2019-04-14T02:06:57.371Z,34.88
2019-04-14T02:07:30.447Z,35.83
2019-04-14T02:08:04.458Z,35.52
2019-04-14T02:08:37.742Z,35.55
2019-04-14T02:09:12.049Z,34.18
2019-04-14T02:09:46.740Z,35.23
2019-04-14T02:10:19.928Z,34.48
2019-04-14T02:10:52.912Z,34.00
2019-04-14T02:11:26.977Z,35.28
2019-04-14T02:12:00.152Z,34.33
2019-04-14T02:12:33.084Z,35.65
2019-04-14T02:13:07.156Z,35.38
2019-04-14T02:13:40.499Z,35.30
2019-04-14T02:14:14.677Z,35.28
2019-04-14T02:14:47.802Z,34.48
2019-04-14T02:15:20.699Z,34.80
2019-04-14T02:15:54.746Z,35.23
2019-04-14T02:16:34.824Z,34.92
2019-04-14T02:17:04.485Z,34.78
2019-04-14T02:17:39.144Z,35.83
2019-04-14T02:18:12.270Z,35.28
2019-04-14T02:18:45.387Z,35.13
2019-04-14T02:19:19.789Z,34.27
2019-04-14T02:19:52.853Z,35.10
2019-04-14T02:20:27.144Z,34.80
2019-04-14T02:21:00.354Z,35.30
2019-04-14T02:21:34.447Z,34.20
2019-04-14T02:22:07.611Z,34.60
2019-04-14T02:22:41.899Z,35.08
2019-04-14T02:23:14.909Z,34.55
2019-04-14T02:23:47.742Z,34.30
2019-04-14T02:24:21.991Z,34.20
2019-04-14T02:24:55.147Z,35.03
2019-04-14T02:25:29.485Z,34.45
2019-04-14T02:26:03.136Z,34.83
2019-04-14T02:26:37.318Z,35.65
2019-04-14T02:27:10.366Z,35.00
2019-04-14T02:27:43.394Z,34.45
2019-04-14T02:28:17.643Z,33.92
2019-04-14T02:28:52.876Z,35.15
2019-04-14T02:29:25.822Z,34.60
2019-04-14T02:30:00.184Z,34.18
2019-04-14T02:30:41.704Z,34.95
2019-04-14T02:31:24.640Z,34.85
2019-04-14T02:32:09.564Z,34.70
2019-04-14T02:33:26.102Z,35.00
2019-04-14T02:33:50.568Z,33.70
2019-04-14T02:34:34.333Z,34.63
2019-04-14T02:35:02.160Z,34.65
2019-04-14T02:36:21.910Z,35.20
2019-04-14T02:37:05.119Z,33.90
2019-04-14T02:38:05.637Z,34.78
2019-04-14T02:39:15.564Z,34.18
2019-04-14T02:39:50.877Z,34.80
2019-04-14T02:40:34.784Z,34.25
2019-04-14T02:41:18.890Z,34.27
2019-04-14T02:41:40.895Z,35.20
2019-04-14T02:42:28.353Z,34.75
2019-04-14T02:42:42.402Z,34.48
2019-04-14T02:43:23.681Z,34.63
2019-04-14T02:44:34.297Z,34.85
2019-04-14T02:44:59.861Z,34.30
2019-04-14T02:45:44.910Z,33.78
2019-04-14T02:49:04.679Z,34.27
2019-04-14T02:49:44.248Z,35.03
2019-04-14T02:50:14.212Z,34.10
2019-04-14T02:50:49.578Z,34.45
2019-04-14T02:51:27.564Z,33.95
2019-04-14T02:51:58.318Z,33.73
2019-04-14T02:52:35.319Z,34.27
2019-04-14T02:53:18.044Z,34.88
2019-04-14T02:53:49.794Z,34.15
2019-04-14T02:54:32.931Z,34.08
2019-04-14T02:54:59.964Z,33.88
2019-04-14T02:55:31.921Z,34.25
2019-04-14T02:56:43.671Z,34.35
2019-04-14T02:57:30.605Z,34.53
2019-04-14T02:57:52.103Z,33.95
2019-04-14T02:58:45.935Z,33.55
2019-04-14T02:59:05.632Z,34.33
2019-04-14T02:59:45.067Z,35.13
2019-04-14T03:00:16.754Z,34.00
2019-04-14T03:00:47.909Z,33.98
2019-04-14T03:03:10.879Z,34.25
2019-04-14T03:03:43.716Z,33.50
2019-04-14T03:04:19.699Z,34.35
2019-04-14T03:05:05.986Z,35.03
2019-04-14T03:05:26.941Z,33.78
2019-04-14T03:06:33.534Z,33.40
2019-04-14T03:07:16.525Z,34.48
2019-04-14T03:08:25.752Z,35.05
2019-04-14T03:09:16.345Z,34.35
2019-04-14T03:10:16.326Z,34.15
2019-04-14T03:11:03.991Z,35.50
2019-04-14T03:11:17.467Z,35.08
2019-04-14T03:11:51.333Z,34.33
2019-04-14T03:13:09.083Z,34.65
2019-04-14T03:13:45.022Z,34.67
2019-04-14T03:14:15.553Z,35.43
2019-04-14T03:14:53.630Z,34.88
2019-04-14T03:15:27.914Z,33.60
2019-04-14T03:16:02.264Z,34.80
2019-04-14T03:17:11.155Z,33.92
2019-04-14T03:17:58.492Z,34.45
2019-04-14T03:18:53.800Z,34.80
2019-04-14T03:20:09.428Z,34.45
2019-04-14T03:22:07.246Z,34.43
2019-04-14T03:23:26.877Z,34.58
2019-04-14T03:24:07.211Z,34.03
2019-04-14T03:24:42.082Z,34.23
2019-04-14T03:25:31.821Z,34.75
2019-04-14T03:26:49.381Z,34.88
2019-04-14T03:27:48.225Z,33.92
2019-04-14T03:28:40.261Z,34.75
2019-04-14T03:29:12.836Z,33.40
2019-04-14T03:29:43.260Z,34.10
2019-04-14T03:30:58.877Z,34.08
2019-04-14T03:32:55.933Z,34.55
2019-04-14T03:33:32.192Z,34.60
2019-04-14T03:34:30.312Z,34.90
2019-04-14T03:36:16.866Z,34.55
2019-04-14T03:37:33.097Z,35.17
2019-04-14T03:38:18.556Z,34.90
2019-04-14T03:39:33.419Z,34.83
2019-04-14T03:39:57.286Z,34.60
2019-04-14T03:41:17.211Z,34.60
2019-04-14T03:41:48.880Z,34.30
2019-04-14T03:42:29.387Z,34.25
2019-04-14T03:43:03.148Z,35.13
2019-04-14T03:43:30.292Z,35.73
2019-04-14T03:44:01.262Z,35.03
2019-04-14T03:44:41.988Z,34.85
2019-04-14T03:45:32.451Z,34.30
2019-04-14T03:46:11.827Z,34.85
2019-04-14T03:46:45.191Z,34.78
2019-04-14T03:47:30.701Z,35.33
2019-04-14T03:49:24.874Z,35.58
2019-04-14T03:50:00.931Z,35.63
2019-04-14T03:51:13.648Z,35.13
2019-04-14T03:52:55.781Z,35.45
2019-04-14T03:53:59.005Z,34.70
2019-04-14T03:54:36.627Z,34.85
2019-04-14T03:55:02.683Z,35.23
2019-04-14T03:56:19.340Z,34.92
2019-04-14T03:56:53.915Z,34.90
2019-04-14T03:57:28.562Z,34.98
2019-04-14T03:58:01.531Z,34.78
2019-04-14T03:58:35.775Z,35.00
2019-04-14T03:59:08.900Z,35.05
2019-04-14T03:59:41.905Z,35.25
2019-04-14T04:00:15.902Z,34.88
2019-04-14T04:00:49.248Z,35.43
2019-04-14T04:01:23.664Z,35.85
2019-04-14T04:01:56.767Z,34.90
2019-04-14T04:02:29.793Z,35.40
2019-04-14T04:03:03.918Z,35.50
2019-04-14T04:03:36.909Z,35.83
2019-04-14T04:04:09.918Z,36.05
2019-04-14T04:04:42.713Z,35.23
2019-04-14T04:05:15.602Z,35.35
2019-04-14T04:05:49.878Z,36.48
2019-04-14T04:06:23.037Z,35.92
2019-04-14T04:06:57.357Z,35.80
2019-04-14T04:07:30.347Z,35.45
2019-04-14T04:08:03.380Z,35.90
2019-04-14T04:08:36.254Z,35.28
2019-04-14T04:09:10.358Z,35.65
2019-04-14T04:09:49.659Z,35.65
2019-04-14T04:10:22.650Z,35.10
2019-04-14T04:10:55.681Z,35.78
2019-04-14T04:11:28.591Z,36.33
2019-04-14T04:12:01.509Z,36.00
2019-04-14T04:12:35.658Z,36.23
2019-04-14T04:13:08.742Z,36.58
2019-04-14T04:13:41.808Z,35.75
2019-04-14T04:14:15.905Z,36.85
2019-04-14T04:14:48.950Z,36.48
2019-04-14T04:15:23.450Z,36.58
2019-04-14T04:16:11.556Z,35.80
2019-04-14T04:16:55.651Z,36.13
2019-04-14T04:17:53.897Z,36.00
2019-04-14T04:18:28.663Z,36.85
2019-04-14T04:19:13.996Z,35.75
2019-04-14T04:20:08.951Z,36.73
2019-04-14T04:21:05.260Z,36.40
2019-04-14T04:21:55.231Z,35.45
2019-04-14T04:22:41.974Z,36.48
2019-04-14T04:23:31.157Z,35.95
2019-04-14T04:24:23.906Z,36.00
2019-04-14T04:25:16.734Z,36.03
2019-04-14T04:26:01.751Z,35.83
2019-04-14T04:26:42.853Z,36.40
2019-04-14T04:27:26.597Z,36.23
2019-04-14T04:28:18.854Z,36.85
2019-04-14T04:29:04.928Z,36.68
2019-04-14T04:29:55.236Z,35.98
2019-04-14T04:30:42.673Z,37.03
2019-04-14T04:31:30.705Z,36.55
2019-04-14T04:32:23.083Z,35.28
2019-04-14T04:33:10.704Z,36.15
2019-04-14T04:34:03.309Z,36.17
2019-04-14T04:34:55.579Z,37.10
2019-04-14T04:35:41.522Z,36.08
2019-04-14T04:36:20.503Z,36.38
2019-04-14T04:37:22.045Z,35.70
2019-04-14T04:38:07.493Z,36.20
2019-04-14T04:38:48.826Z,37.23
2019-04-14T04:39:25.828Z,35.80
2019-04-14T04:40:02.976Z,36.42
2019-04-14T04:40:36.121Z,37.25
2019-04-14T04:41:10.156Z,36.77
2019-04-14T04:41:43.343Z,36.55
2019-04-14T04:42:16.137Z,36.63
2019-04-14T04:42:49.077Z,36.60
2019-04-14T04:43:23.255Z,36.50
2019-04-14T04:43:56.230Z,37.15
2019-04-14T04:44:29.166Z,36.45
2019-04-14T04:45:03.862Z,36.40
2019-04-14T04:45:38.692Z,36.50
2019-04-14T04:46:13.407Z,36.08
2019-04-14T04:46:46.421Z,37.13
2019-04-14T04:47:19.327Z,35.50
2019-04-14T04:47:53.402Z,36.73
2019-04-14T04:48:26.494Z,36.73
2019-04-14T04:49:09.091Z,36.45
2019-04-14T04:49:34.228Z,37.05
2019-04-14T04:50:08.525Z,36.77
2019-04-14T04:50:41.616Z,36.58
2019-04-14T04:51:14.605Z,36.40
2019-04-14T04:51:48.696Z,36.80
2019-04-14T04:52:21.857Z,36.65
2019-04-14T04:52:56.086Z,35.85
2019-04-14T04:53:29.527Z,37.05
2019-04-14T04:54:03.765Z,37.83
2019-04-14T04:54:36.861Z,36.30
2019-04-14T04:55:11.196Z,37.40
2019-04-14T04:55:44.339Z,37.03
2019-04-14T04:56:17.327Z,37.48
2019-04-14T04:56:51.514Z,37.75
2019-04-14T04:57:24.588Z,36.45
2019-04-14T04:57:59.052Z,37.50
2019-04-14T04:58:32.739Z,37.48
2019-04-14T04:59:05.910Z,36.80
2019-04-14T04:59:38.860Z,37.75
2019-04-14T05:00:13.371Z,37.58
2019-04-14T05:00:48.545Z,38.23
2019-04-14T05:01:21.728Z,38.05
2019-04-14T05:01:56.264Z,37.85
2019-04-14T05:02:29.313Z,37.25
2019-04-14T05:03:03.585Z,37.63
2019-04-14T05:03:36.665Z,38.28
2019-04-14T05:04:09.664Z,38.75
2019-04-14T05:04:43.731Z,37.17
2019-04-14T05:06:06.953Z,37.17
2019-04-14T05:07:05.681Z,37.85
2019-04-14T05:07:38.705Z,38.10
2019-04-14T05:08:13.010Z,37.88
2019-04-14T05:08:50.601Z,36.58
2019-04-14T05:09:39.082Z,38.40
2019-04-14T05:10:22.349Z,37.48
2019-04-14T05:11:01.110Z,38.50
2019-04-14T05:11:40.405Z,38.38
2019-04-14T05:12:33.188Z,37.67
2019-04-14T05:13:20.614Z,37.23
2019-04-14T05:13:55.355Z,38.55
2019-04-14T05:14:39.026Z,38.35
2019-04-14T05:15:31.874Z,38.78
2019-04-14T05:16:06.332Z,38.08
2019-04-14T05:16:39.861Z,38.65
2019-04-14T05:17:13.182Z,38.42
2019-04-14T05:17:47.295Z,38.63
2019-04-14T05:18:24.861Z,38.92
2019-04-14T05:19:11.428Z,39.10
2019-04-14T05:19:36.006Z,38.00
2019-04-14T05:20:07.695Z,38.25
2019-04-14T05:20:40.631Z,38.92
2019-04-14T05:21:14.836Z,38.60
2019-04-14T05:21:47.858Z,39.23
2019-04-14T05:22:22.060Z,39.27
2019-04-14T05:22:55.674Z,39.63
2019-04-14T05:23:29.824Z,38.75
2019-04-14T05:24:03.139Z,38.17
2019-04-14T05:24:37.549Z,39.10
2019-04-14T05:25:10.590Z,38.23
2019-04-14T05:25:45.114Z,38.38
2019-04-14T05:26:18.235Z,39.38
2019-04-14T05:26:51.092Z,39.27
2019-04-14T05:27:25.328Z,38.98
2019-04-14T05:28:00.418Z,39.18
2019-04-14T05:28:33.601Z,40.88
2019-04-14T05:29:10.013Z,39.55
2019-04-14T05:29:43.107Z,39.10
2019-04-14T05:30:16.121Z,40.00
2019-04-14T05:30:50.270Z,39.18
2019-04-14T05:31:26.259Z,39.65
2019-04-14T05:31:58.273Z,39.18
2019-04-14T05:32:32.577Z,39.35
2019-04-14T05:33:05.599Z,38.08
2019-04-14T05:33:38.438Z,39.50
2019-04-14T05:34:11.255Z,39.67
2019-04-14T05:34:44.065Z,40.03
2019-04-14T05:35:17.047Z,38.45
2019-04-14T05:35:50.947Z,39.08
2019-04-14T05:36:23.876Z,40.08
2019-04-14T05:36:56.813Z,39.92
2019-04-14T05:37:29.727Z,39.30
2019-04-14T05:38:03.755Z,39.05
2019-04-14T05:38:37.051Z,40.75
2019-04-14T05:39:09.855Z,40.78
2019-04-14T05:39:43.949Z,38.92
2019-04-14T05:40:17.065Z,39.05
2019-04-14T05:40:51.834Z,38.88
2019-04-14T05:41:25.123Z,39.25
2019-04-14T05:42:07.680Z,40.43
2019-04-14T05:42:34.107Z,38.98
2019-04-14T05:43:07.051Z,40.05
2019-04-14T05:43:48.759Z,39.42
2019-04-14T05:44:16.600Z,39.45
2019-04-14T05:44:49.508Z,39.80
2019-04-14T05:45:22.609Z,39.53
2019-04-14T05:45:56.574Z,39.30
2019-04-14T05:46:29.741Z,38.63
2019-04-14T05:47:02.630Z,37.78
2019-04-14T05:47:35.728Z,39.50
2019-04-14T05:48:09.748Z,38.65
2019-04-14T05:48:44.638Z,37.95
2019-04-14T05:49:28.639Z,39.35
2019-04-14T05:49:54.964Z,39.80
2019-04-14T05:50:27.274Z,39.95
2019-04-14T05:51:00.391Z,40.10
2019-04-14T05:51:33.470Z,39.38
2019-04-14T05:52:07.648Z,38.75
2019-04-14T05:52:41.023Z,39.73
2019-04-14T05:53:15.310Z,39.60
2019-04-14T05:53:48.495Z,39.08
2019-04-14T05:54:21.542Z,39.38
2019-04-14T05:54:55.705Z,39.67
2019-04-14T05:55:28.763Z,39.62
2019-04-14T05:56:01.756Z,39.23
2019-04-14T05:56:37.241Z,40.73
2019-04-14T05:57:11.133Z,38.00
2019-04-14T05:57:44.241Z,38.85
2019-04-14T05:58:18.585Z,40.25
2019-04-14T05:58:51.996Z,40.12
2019-04-14T05:59:24.919Z,40.25
2019-04-14T05:59:59.420Z,39.23
2019-04-14T06:00:32.746Z,39.23
2019-04-14T06:01:06.927Z,39.78
2019-04-14T06:01:40.089Z,39.20
2019-04-14T06:02:13.692Z,39.90
2019-04-14T06:02:48.607Z,40.80
2019-04-14T06:03:21.671Z,39.95
2019-04-14T06:03:54.635Z,39.67
2019-04-14T06:04:28.519Z,38.60
2019-04-14T06:05:01.727Z,39.05
2019-04-14T06:05:36.184Z,39.75
2019-04-14T06:06:09.419Z,39.25
2019-04-14T06:06:42.462Z,37.10
2019-04-14T06:07:15.382Z,38.83
2019-04-14T06:07:48.417Z,39.70
2019-04-14T06:08:21.488Z,40.73
2019-04-14T06:08:54.322Z,38.88
2019-04-14T06:09:27.783Z,39.83
2019-04-14T06:10:03.732Z,38.15
2019-04-14T06:10:36.913Z,39.35
2019-04-14T06:11:09.917Z,39.67
2019-04-14T06:11:42.892Z,40.35
2019-04-14T06:12:15.933Z,40.15
2019-04-14T06:12:48.935Z,38.58
2019-04-14T06:13:21.897Z,37.98
2019-04-14T06:13:56.292Z,39.58
2019-04-14T06:14:29.465Z,38.98
2019-04-14T06:15:02.648Z,39.65
2019-04-14T06:15:35.721Z,38.73
2019-04-14T06:16:08.863Z,39.08
2019-04-14T06:16:42.002Z,38.10
2019-04-14T06:17:15.085Z,39.33
2019-04-14T06:17:48.257Z,39.63
2019-04-14T06:18:21.354Z,39.03
2019-04-14T06:18:54.337Z,37.75
2019-04-14T06:19:36.386Z,39.25
2019-04-14T06:20:02.799Z,39.13
2019-04-14T06:20:35.686Z,39.05
2019-04-14T06:21:18.215Z,35.80
2019-04-14T06:21:51.204Z,40.17
2019-04-14T06:22:24.269Z,38.95
2019-04-14T06:22:57.202Z,39.18
2019-04-14T06:23:30.278Z,38.67
2019-04-14T06:24:03.449Z,40.92
2019-04-14T06:24:36.850Z,39.18
2019-04-14T06:25:10.014Z,39.15
2019-04-14T06:25:43.117Z,39.55
2019-04-14T06:26:16.082Z,39.88
2019-04-14T06:26:49.444Z,38.83
2019-04-14T06:27:24.037Z,39.18
2019-04-14T06:27:57.092Z,39.83
2019-04-14T06:28:30.323Z,40.20
2019-04-14T06:29:03.563Z,37.33
2019-04-14T06:29:36.621Z,39.08
2019-04-14T06:30:33.260Z,40.23
2019-04-14T06:31:24.614Z,39.60
2019-04-14T06:32:17.181Z,40.95
2019-04-14T06:32:50.579Z,40.67
2019-04-14T06:33:35.263Z,40.35
2019-04-14T06:34:23.885Z,40.90
2019-04-14T06:35:32.014Z,39.78
2019-04-14T06:36:19.391Z,40.98
2019-04-14T06:38:05.552Z,41.37
2019-04-14T06:38:41.199Z,40.55
2019-04-14T06:39:18.307Z,41.40
2019-04-14T06:39:51.997Z,40.43
2019-04-14T06:40:26.992Z,38.88
2019-04-14T06:41:04.985Z,40.95
2019-04-14T06:41:38.141Z,41.10
2019-04-14T06:42:11.085Z,40.03
2019-04-14T06:42:44.012Z,40.52
2019-04-14T06:43:17.189Z,40.67
2019-04-14T06:43:50.140Z,40.12
2019-04-14T06:44:23.237Z,39.58
2019-04-14T06:44:56.205Z,37.88
2019-04-14T06:45:29.123Z,38.13
2019-04-14T06:46:02.152Z,39.25
2019-04-14T06:46:35.160Z,35.43
2019-04-14T06:47:08.105Z,39.18
2019-04-14T06:47:41.013Z,39.90
2019-04-14T06:48:13.995Z,39.35
2019-04-14T06:48:46.799Z,38.55
2019-04-14T06:49:19.845Z,39.30
2019-04-14T06:49:52.879Z,39.35
2019-04-14T06:50:25.856Z,38.20
2019-04-14T06:50:58.865Z,38.08
2019-04-14T06:51:32.229Z,37.17
2019-04-14T06:52:05.355Z,36.38
2019-04-14T06:52:38.411Z,39.33
2019-04-14T06:53:11.318Z,36.77
2019-04-14T06:53:44.271Z,38.42
2019-04-14T06:54:17.181Z,37.60
2019-04-14T06:54:50.373Z,36.20
2019-04-14T06:55:24.813Z,38.40
2019-04-14T06:55:57.853Z,36.75
2019-04-14T06:56:30.759Z,37.60
2019-04-14T06:57:03.906Z,36.68
2019-04-14T06:57:36.699Z,39.08
2019-04-14T06:58:09.650Z,38.60
2019-04-14T06:58:42.635Z,39.35
2019-04-14T06:59:15.671Z,37.67
2019-04-14T06:59:48.781Z,39.40
2019-04-14T07:00:21.854Z,35.35
2019-04-14T07:00:54.779Z,35.13
2019-04-14T07:01:27.942Z,34.58
2019-04-14T07:02:01.935Z,37.08
2019-04-14T07:02:35.099Z,38.90
2019-04-14T07:03:07.990Z,38.70
2019-04-14T07:03:41.243Z,37.20
2019-04-14T07:04:14.151Z,36.98
2019-04-14T07:04:47.157Z,37.85
2019-04-14T07:05:20.137Z,37.58
2019-04-14T07:05:53.227Z,36.23
2019-04-14T07:06:26.250Z,37.40
2019-04-14T07:06:59.212Z,39.33
2019-04-14T07:07:32.097Z,38.33
2019-04-14T07:08:05.077Z,39.40
2019-04-14T07:08:37.989Z,38.30
2019-04-14T07:09:11.045Z,36.88
2019-04-14T07:09:44.054Z,36.55
2019-04-14T07:10:17.042Z,36.95
2019-04-14T07:10:49.927Z,37.63
2019-04-14T07:11:22.863Z,37.67
2019-04-14T07:11:55.951Z,38.08
2019-04-14T07:12:29.018Z,38.88
2019-04-14T07:13:01.820Z,38.50
2019-04-14T07:13:35.151Z,38.45
2019-04-14T07:14:08.147Z,39.05
2019-04-14T07:14:41.184Z,38.33
2019-04-14T07:15:14.243Z,38.10
2019-04-14T07:15:47.380Z,35.33
2019-04-14T07:16:20.158Z,37.75
2019-04-14T07:16:53.007Z,34.60
2019-04-14T07:17:26.051Z,36.70
2019-04-14T07:17:59.098Z,37.93
2019-04-14T07:18:33.085Z,37.75
2019-04-14T07:19:06.236Z,38.70
2019-04-14T07:19:39.239Z,37.28
2019-04-14T07:20:12.441Z,38.30
2019-04-14T07:20:45.549Z,36.15
2019-04-14T07:21:18.532Z,38.67
2019-04-14T07:21:52.675Z,37.88
2019-04-14T07:22:25.695Z,38.33
2019-04-14T07:22:58.629Z,38.48
2019-04-14T07:23:31.714Z,36.05
2019-04-14T07:24:04.712Z,35.73
2019-04-14T07:24:37.810Z,36.53
2019-04-14T07:25:12.040Z,38.45
2019-04-14T07:25:45.011Z,37.05
2019-04-14T07:26:19.090Z,37.05
2019-04-14T07:26:52.178Z,38.45
2019-04-14T07:27:25.071Z,38.10
2019-04-14T07:27:58.117Z,38.90
2019-04-14T07:28:32.800Z,38.48
2019-04-14T07:29:05.841Z,38.58
2019-04-14T07:29:46.269Z,38.65
2019-04-14T07:30:39.372Z,38.70
2019-04-14T07:31:38.109Z,35.83
2019-04-14T07:32:25.765Z,37.55
2019-04-14T07:33:20.919Z,37.93
2019-04-14T07:34:13.677Z,37.93
2019-04-14T07:35:11.829Z,33.85
2019-04-14T07:36:04.503Z,37.80
2019-04-14T07:37:09.503Z,34.00
2019-04-14T07:37:49.198Z,37.30
2019-04-14T07:38:36.454Z,36.15
2019-04-14T07:39:47.629Z,36.75
2019-04-14T07:40:43.182Z,38.67
2019-04-14T07:41:39.006Z,38.28
2019-04-14T07:42:31.523Z,37.90
2019-04-14T07:43:39.597Z,36.55
2019-04-14T07:44:31.413Z,38.23
2019-04-14T07:45:24.693Z,37.00
2019-04-14T07:46:08.591Z,38.73
2019-04-14T07:46:53.268Z,37.50
2019-04-14T07:47:40.147Z,38.63
2019-04-14T07:48:26.654Z,37.63
2019-04-14T07:49:15.671Z,37.58
2019-04-14T07:50:14.609Z,39.18
2019-04-14T07:50:53.783Z,37.55
2019-04-14T07:51:55.674Z,38.38
2019-04-14T07:52:45.867Z,38.63
2019-04-14T07:53:33.107Z,38.75
2019-04-14T07:54:24.719Z,35.60
2019-04-14T07:55:19.698Z,38.35
2019-04-14T07:56:27.377Z,38.33
2019-04-14T07:57:19.101Z,38.48
2019-04-14T07:58:01.127Z,38.65
2019-04-14T07:58:53.819Z,39.05
2019-04-14T07:59:47.279Z,36.80
2019-04-14T08:00:31.025Z,38.88
2019-04-14T08:01:09.551Z,38.35
2019-04-14T08:02:08.471Z,38.10
2019-04-14T08:03:06.923Z,37.42
2019-04-14T08:03:59.587Z,37.45
2019-04-14T08:04:35.558Z,37.60
2019-04-14T08:05:12.517Z,37.58
2019-04-14T08:05:46.581Z,37.13
2019-04-14T08:06:19.619Z,37.05
2019-04-14T08:06:56.463Z,37.20
2019-04-14T08:07:29.471Z,37.30
2019-04-14T08:08:02.663Z,36.10
2019-04-14T08:08:35.973Z,35.63
2019-04-14T08:09:08.931Z,36.55
2019-04-14T08:09:42.281Z,37.05
2019-04-14T08:10:15.457Z,37.35
2019-04-14T08:10:48.577Z,37.03
2019-04-14T08:11:21.575Z,36.77
2019-04-14T08:11:54.591Z,34.65
2019-04-14T08:12:27.678Z,35.65
2019-04-14T08:13:00.811Z,35.45
2019-04-14T08:13:33.797Z,36.00
2019-04-14T08:14:06.702Z,36.77
2019-04-14T08:14:39.722Z,35.55
2019-04-14T08:15:13.157Z,35.60
2019-04-14T08:15:46.301Z,36.95
2019-04-14T08:16:19.311Z,36.88
2019-04-14T08:16:52.491Z,36.95
2019-04-14T08:17:25.618Z,37.13